sensor_id;sensor_type;location;lat;lon;timestamp;P1;durP1;ratioP1;P2;durP2;ratioP2
28968;SDS011;16076;51.194;6.642;2022-07-23T00:02:24;17.73;;;10.00;;
28968;SDS011;16076;51.194;6.642;2022-07-23T00:04:50;23.83;;;13.27;;
28968;SDS011;16076;51.194;6.642;2022-07-23T00:07:16;27.08;;;13.95;;
28968;SDS011;16076;51.194;6.642;2022-07-23T00:09:42;28.15;;;14.38;;
28968;SDS011;16076;51.194;6.642;2022-07-23T00:12:08;32.03;;;14.77;;
28968;SDS011;16076;51.194;6.642;2022-07-23T00:14:36;29.58;;;15.07;;
28968;SDS011;16076;51.194;6.642;2022-07-23T00:17:02;24.85;;;13.43;;
28968;SDS011;16076;51.194;6.642;2022-07-23T00:19:27;23.85;;;13.65;;
28968;SDS011;16076;51.194;6.642;2022-07-23T00:21:54;26.33;;;13.65;;
28968;SDS011;16076;51.194;6.642;2022-07-23T00:24:20;17.15;;;11.10;;
28968;SDS011;16076;51.194;6.642;2022-07-23T00:26:46;21.55;;;11.68;;
28968;SDS011;16076;51.194;6.642;2022-07-23T00:29:11;19.65;;;11.23;;
28968;SDS011;16076;51.194;6.642;2022-07-23T00:31:37;17.90;;;11.02;;
28968;SDS011;16076;51.194;6.642;2022-07-23T00:34:03;25.42;;;13.60;;
28968;SDS011;16076;51.194;6.642;2022-07-23T00:36:29;24.48;;;12.82;;
28968;SDS011;16076;51.194;6.642;2022-07-23T00:38:57;24.35;;;13.30;;
28968;SDS011;16076;51.194;6.642;2022-07-23T00:41:23;23.08;;;13.40;;
28968;SDS011;16076;51.194;6.642;2022-07-23T00:43:49;21.83;;;12.55;;
28968;SDS011;16076;51.194;6.642;2022-07-23T00:46:19;22.70;;;13.30;;
28968;SDS011;16076;51.194;6.642;2022-07-23T00:48:45;24.23;;;13.15;;
28968;SDS011;16076;51.194;6.642;2022-07-23T00:51:15;20.08;;;12.52;;
28968;SDS011;16076;51.194;6.642;2022-07-23T00:53:41;16.90;;;10.80;;
28968;SDS011;16076;51.194;6.642;2022-07-23T00:56:07;20.63;;;11.82;;
28968;SDS011;16076;51.194;6.642;2022-07-23T00:58:34;16.75;;;11.40;;
28968;SDS011;16076;51.194;6.642;2022-07-23T01:01:00;17.38;;;11.15;;
28968;SDS011;16076;51.194;6.642;2022-07-23T01:03:26;18.02;;;10.93;;
28968;SDS011;16076;51.194;6.642;2022-07-23T01:05:52;23.15;;;13.10;;
28968;SDS011;16076;51.194;6.642;2022-07-23T01:08:19;19.98;;;11.82;;
28968;SDS011;16076;51.194;6.642;2022-07-23T01:10:46;18.98;;;11.32;;
28968;SDS011;16076;51.194;6.642;2022-07-23T01:13:13;24.77;;;12.25;;
28968;SDS011;16076;51.194;6.642;2022-07-23T01:15:39;18.63;;;11.60;;
28968;SDS011;16076;51.194;6.642;2022-07-23T01:18:05;20.75;;;11.70;;
28968;SDS011;16076;51.194;6.642;2022-07-23T01:20:32;20.83;;;11.77;;
28968;SDS011;16076;51.194;6.642;2022-07-23T01:22:58;19.65;;;11.68;;
28968;SDS011;16076;51.194;6.642;2022-07-23T01:25:24;22.42;;;12.73;;
28968;SDS011;16076;51.194;6.642;2022-07-23T01:27:52;24.15;;;11.48;;
28968;SDS011;16076;51.194;6.642;2022-07-23T01:30:19;24.75;;;12.20;;
28968;SDS011;16076;51.194;6.642;2022-07-23T01:32:45;20.75;;;12.52;;
28968;SDS011;16076;51.194;6.642;2022-07-23T01:35:11;22.02;;;11.98;;
28968;SDS011;16076;51.194;6.642;2022-07-23T01:37:37;18.33;;;12.13;;
28968;SDS011;16076;51.194;6.642;2022-07-23T01:40:03;21.48;;;12.25;;
28968;SDS011;16076;51.194;6.642;2022-07-23T01:42:30;22.70;;;12.60;;
28968;SDS011;16076;51.194;6.642;2022-07-23T01:44:56;20.70;;;11.98;;
28968;SDS011;16076;51.194;6.642;2022-07-23T01:47:22;17.42;;;10.80;;
28968;SDS011;16076;51.194;6.642;2022-07-23T01:49:48;22.63;;;12.40;;
28968;SDS011;16076;51.194;6.642;2022-07-23T01:52:13;19.73;;;11.55;;
28968;SDS011;16076;51.194;6.642;2022-07-23T01:54:39;23.48;;;12.88;;
28968;SDS011;16076;51.194;6.642;2022-07-23T01:57:06;19.85;;;12.15;;
28968;SDS011;16076;51.194;6.642;2022-07-23T01:59:32;22.15;;;12.32;;
28968;SDS011;16076;51.194;6.642;2022-07-23T02:01:57;22.50;;;12.15;;
28968;SDS011;16076;51.194;6.642;2022-07-23T02:04:24;18.17;;;11.68;;
28968;SDS011;16076;51.194;6.642;2022-07-23T02:06:51;20.20;;;13.10;;
28968;SDS011;16076;51.194;6.642;2022-07-23T02:09:17;22.70;;;13.95;;
28968;SDS011;16076;51.194;6.642;2022-07-23T02:11:43;22.23;;;12.48;;
28968;SDS011;16076;51.194;6.642;2022-07-23T02:14:10;23.95;;;13.52;;
28968;SDS011;16076;51.194;6.642;2022-07-23T02:16:36;20.25;;;11.13;;
28968;SDS011;16076;51.194;6.642;2022-07-23T02:19:02;26.17;;;12.88;;
28968;SDS011;16076;51.194;6.642;2022-07-23T02:21:28;21.70;;;11.93;;
28968;SDS011;16076;51.194;6.642;2022-07-23T02:23:54;21.10;;;12.32;;
28968;SDS011;16076;51.194;6.642;2022-07-23T02:26:20;19.23;;;11.43;;
28968;SDS011;16076;51.194;6.642;2022-07-23T02:28:46;19.55;;;11.85;;
28968;SDS011;16076;51.194;6.642;2022-07-23T02:31:12;19.30;;;11.77;;
28968;SDS011;16076;51.194;6.642;2022-07-23T02:33:37;19.08;;;12.05;;
28968;SDS011;16076;51.194;6.642;2022-07-23T02:36:03;21.17;;;12.10;;
28968;SDS011;16076;51.194;6.642;2022-07-23T02:38:30;22.83;;;12.18;;
28968;SDS011;16076;51.194;6.642;2022-07-23T02:40:57;22.33;;;11.50;;
28968;SDS011;16076;51.194;6.642;2022-07-23T02:43:23;16.65;;;11.20;;
28968;SDS011;16076;51.194;6.642;2022-07-23T02:45:49;15.98;;;10.80;;
28968;SDS011;16076;51.194;6.642;2022-07-23T02:48:15;18.65;;;11.30;;
28968;SDS011;16076;51.194;6.642;2022-07-23T02:50:43;17.20;;;10.77;;
28968;SDS011;16076;51.194;6.642;2022-07-23T02:53:08;20.58;;;11.60;;
28968;SDS011;16076;51.194;6.642;2022-07-23T02:55:34;21.15;;;11.98;;
28968;SDS011;16076;51.194;6.642;2022-07-23T02:58:00;16.95;;;10.98;;
28968;SDS011;16076;51.194;6.642;2022-07-23T03:00:26;22.70;;;11.95;;
28968;SDS011;16076;51.194;6.642;2022-07-23T03:02:51;19.58;;;10.77;;
28968;SDS011;16076;51.194;6.642;2022-07-23T03:05:17;19.80;;;11.90;;
28968;SDS011;16076;51.194;6.642;2022-07-23T03:07:43;20.50;;;11.88;;
28968;SDS011;16076;51.194;6.642;2022-07-23T03:10:09;21.63;;;12.40;;
28968;SDS011;16076;51.194;6.642;2022-07-23T03:12:37;16.27;;;11.18;;
28968;SDS011;16076;51.194;6.642;2022-07-23T03:15:03;16.00;;;11.25;;
28968;SDS011;16076;51.194;6.642;2022-07-23T03:17:29;14.32;;;9.73;;
28968;SDS011;16076;51.194;6.642;2022-07-23T03:19:54;12.25;;;8.85;;
28968;SDS011;16076;51.194;6.642;2022-07-23T03:22:20;24.50;;;4.65;;
28968;SDS011;16076;51.194;6.642;2022-07-23T03:24:46;7.30;;;4.97;;
28968;SDS011;16076;51.194;6.642;2022-07-23T03:27:21;6.80;;;3.20;;
28968;SDS011;16076;51.194;6.642;2022-07-23T03:29:48;4.40;;;3.70;;
28968;SDS011;16076;51.194;6.642;2022-07-23T03:32:21;3.95;;;3.55;;
28968;SDS011;16076;51.194;6.642;2022-07-23T03:34:48;5.43;;;4.55;;
28968;SDS011;16076;51.194;6.642;2022-07-23T03:37:14;4.53;;;3.75;;
28968;SDS011;16076;51.194;6.642;2022-07-23T03:39:40;5.38;;;4.45;;
28968;SDS011;16076;51.194;6.642;2022-07-23T03:42:06;7.95;;;4.20;;
28968;SDS011;16076;51.194;6.642;2022-07-23T03:44:33;8.77;;;5.10;;
28968;SDS011;16076;51.194;6.642;2022-07-23T03:46:59;7.55;;;6.43;;
28968;SDS011;16076;51.194;6.642;2022-07-23T03:49:25;11.57;;;6.97;;
28968;SDS011;16076;51.194;6.642;2022-07-23T03:51:50;14.02;;;7.30;;
28968;SDS011;16076;51.194;6.642;2022-07-23T03:54:18;12.50;;;7.97;;
28968;SDS011;16076;51.194;6.642;2022-07-23T03:56:44;13.48;;;7.25;;
28968;SDS011;16076;51.194;6.642;2022-07-23T03:59:10;9.40;;;7.25;;
28968;SDS011;16076;51.194;6.642;2022-07-23T04:01:38;11.93;;;8.15;;
28968;SDS011;16076;51.194;6.642;2022-07-23T04:04:04;13.93;;;8.10;;
28968;SDS011;16076;51.194;6.642;2022-07-23T04:06:30;10.25;;;7.10;;
28968;SDS011;16076;51.194;6.642;2022-07-23T04:08:55;14.07;;;8.65;;
28968;SDS011;16076;51.194;6.642;2022-07-23T04:11:21;11.30;;;7.10;;
28968;SDS011;16076;51.194;6.642;2022-07-23T04:13:47;7.38;;;5.60;;
28968;SDS011;16076;51.194;6.642;2022-07-23T04:16:13;10.05;;;5.70;;
28968;SDS011;16076;51.194;6.642;2022-07-23T04:18:39;9.88;;;5.68;;
28968;SDS011;16076;51.194;6.642;2022-07-23T04:21:05;7.57;;;5.53;;
28968;SDS011;16076;51.194;6.642;2022-07-23T04:23:30;13.48;;;8.38;;
28968;SDS011;16076;51.194;6.642;2022-07-23T04:25:56;18.88;;;9.75;;
28968;SDS011;16076;51.194;6.642;2022-07-23T04:28:22;17.58;;;10.55;;
28968;SDS011;16076;51.194;6.642;2022-07-23T04:30:48;15.88;;;10.32;;
28968;SDS011;16076;51.194;6.642;2022-07-23T04:33:13;20.00;;;12.95;;
28968;SDS011;16076;51.194;6.642;2022-07-23T04:35:39;21.23;;;12.57;;
28968;SDS011;16076;51.194;6.642;2022-07-23T04:38:05;20.42;;;13.25;;
28968;SDS011;16076;51.194;6.642;2022-07-23T04:40:31;22.83;;;12.98;;
28968;SDS011;16076;51.194;6.642;2022-07-23T04:42:56;20.08;;;13.13;;
28968;SDS011;16076;51.194;6.642;2022-07-23T04:45:22;16.98;;;11.75;;
28968;SDS011;16076;51.194;6.642;2022-07-23T04:47:49;21.65;;;13.15;;
28968;SDS011;16076;51.194;6.642;2022-07-23T04:50:15;21.02;;;12.30;;
28968;SDS011;16076;51.194;6.642;2022-07-23T04:52:46;22.00;;;13.18;;
28968;SDS011;16076;51.194;6.642;2022-07-23T04:55:12;19.25;;;12.38;;
28968;SDS011;16076;51.194;6.642;2022-07-23T04:57:39;25.48;;;11.88;;
28968;SDS011;16076;51.194;6.642;2022-07-23T05:00:04;21.05;;;13.25;;
28968;SDS011;16076;51.194;6.642;2022-07-23T05:02:31;22.00;;;13.23;;
28968;SDS011;16076;51.194;6.642;2022-07-23T05:04:57;21.55;;;12.25;;
28968;SDS011;16076;51.194;6.642;2022-07-23T05:07:23;21.77;;;12.57;;
28968;SDS011;16076;51.194;6.642;2022-07-23T05:09:49;18.65;;;13.40;;
28968;SDS011;16076;51.194;6.642;2022-07-23T05:12:15;19.65;;;12.52;;
28968;SDS011;16076;51.194;6.642;2022-07-23T05:14:41;23.48;;;13.38;;
28968;SDS011;16076;51.194;6.642;2022-07-23T05:17:07;26.35;;;13.85;;
28968;SDS011;16076;51.194;6.642;2022-07-23T05:19:33;26.13;;;13.23;;
28968;SDS011;16076;51.194;6.642;2022-07-23T05:21:59;23.98;;;13.70;;
28968;SDS011;16076;51.194;6.642;2022-07-23T05:24:25;23.55;;;14.05;;
28968;SDS011;16076;51.194;6.642;2022-07-23T05:26:51;23.73;;;13.27;;
28968;SDS011;16076;51.194;6.642;2022-07-23T05:29:17;24.95;;;13.77;;
28968;SDS011;16076;51.194;6.642;2022-07-23T05:31:43;22.17;;;13.27;;
28968;SDS011;16076;51.194;6.642;2022-07-23T05:34:09;20.10;;;11.90;;
28968;SDS011;16076;51.194;6.642;2022-07-23T05:36:37;20.88;;;12.63;;
28968;SDS011;16076;51.194;6.642;2022-07-23T05:39:03;22.00;;;13.88;;
28968;SDS011;16076;51.194;6.642;2022-07-23T05:41:29;22.55;;;12.85;;
28968;SDS011;16076;51.194;6.642;2022-07-23T05:43:55;28.30;;;14.02;;
28968;SDS011;16076;51.194;6.642;2022-07-23T05:46:21;30.80;;;15.50;;
28968;SDS011;16076;51.194;6.642;2022-07-23T05:48:47;27.35;;;14.82;;
28968;SDS011;16076;51.194;6.642;2022-07-23T05:51:23;24.98;;;14.65;;
28968;SDS011;16076;51.194;6.642;2022-07-23T05:53:50;23.67;;;14.52;;
28968;SDS011;16076;51.194;6.642;2022-07-23T05:56:16;26.50;;;14.65;;
28968;SDS011;16076;51.194;6.642;2022-07-23T05:58:43;26.55;;;14.75;;
28968;SDS011;16076;51.194;6.642;2022-07-23T06:01:11;26.95;;;15.93;;
28968;SDS011;16076;51.194;6.642;2022-07-23T06:03:37;29.23;;;15.63;;
28968;SDS011;16076;51.194;6.642;2022-07-23T06:06:04;24.00;;;14.85;;
28968;SDS011;16076;51.194;6.642;2022-07-23T06:08:31;27.88;;;15.38;;
28968;SDS011;16076;51.194;6.642;2022-07-23T06:10:57;27.45;;;15.23;;
28968;SDS011;16076;51.194;6.642;2022-07-23T06:13:22;32.33;;;15.85;;
28968;SDS011;16076;51.194;6.642;2022-07-23T06:15:48;31.80;;;15.65;;
28968;SDS011;16076;51.194;6.642;2022-07-23T06:18:17;31.58;;;15.50;;
28968;SDS011;16076;51.194;6.642;2022-07-23T06:20:42;34.92;;;16.52;;
28968;SDS011;16076;51.194;6.642;2022-07-23T06:23:08;30.58;;;17.08;;
28968;SDS011;16076;51.194;6.642;2022-07-23T06:25:34;30.83;;;16.40;;
28968;SDS011;16076;51.194;6.642;2022-07-23T06:28:00;36.65;;;19.05;;
28968;SDS011;16076;51.194;6.642;2022-07-23T06:30:28;43.00;;;19.67;;
28968;SDS011;16076;51.194;6.642;2022-07-23T06:32:53;40.53;;;20.85;;
28968;SDS011;16076;51.194;6.642;2022-07-23T06:35:19;41.80;;;20.23;;
28968;SDS011;16076;51.194;6.642;2022-07-23T06:37:45;38.60;;;20.60;;
28968;SDS011;16076;51.194;6.642;2022-07-23T06:40:11;35.00;;;19.58;;
28968;SDS011;16076;51.194;6.642;2022-07-23T06:42:38;36.38;;;20.05;;
28968;SDS011;16076;51.194;6.642;2022-07-23T06:45:05;48.65;;;21.90;;
28968;SDS011;16076;51.194;6.642;2022-07-23T06:47:31;39.40;;;21.27;;
28968;SDS011;16076;51.194;6.642;2022-07-23T06:49:57;35.03;;;19.48;;
28968;SDS011;16076;51.194;6.642;2022-07-23T06:52:23;36.90;;;19.27;;
28968;SDS011;16076;51.194;6.642;2022-07-23T06:54:49;42.00;;;18.98;;
28968;SDS011;16076;51.194;6.642;2022-07-23T06:57:15;44.30;;;20.63;;
28968;SDS011;16076;51.194;6.642;2022-07-23T06:59:40;50.30;;;21.10;;
28968;SDS011;16076;51.194;6.642;2022-07-23T07:02:07;44.17;;;20.50;;
28968;SDS011;16076;51.194;6.642;2022-07-23T07:04:33;45.40;;;20.70;;
28968;SDS011;16076;51.194;6.642;2022-07-23T07:06:59;35.35;;;18.00;;
28968;SDS011;16076;51.194;6.642;2022-07-23T07:09:25;39.08;;;19.75;;
28968;SDS011;16076;51.194;6.642;2022-07-23T07:11:51;38.47;;;18.63;;
28968;SDS011;16076;51.194;6.642;2022-07-23T07:14:16;36.45;;;18.63;;
28968;SDS011;16076;51.194;6.642;2022-07-23T07:16:42;42.90;;;19.83;;
28968;SDS011;16076;51.194;6.642;2022-07-23T07:19:08;41.88;;;20.83;;
28968;SDS011;16076;51.194;6.642;2022-07-23T07:21:34;36.67;;;19.20;;
28968;SDS011;16076;51.194;6.642;2022-07-23T07:24:02;33.53;;;18.77;;
28968;SDS011;16076;51.194;6.642;2022-07-23T07:26:29;38.63;;;18.48;;
28968;SDS011;16076;51.194;6.642;2022-07-23T07:28:56;33.97;;;17.27;;
28968;SDS011;16076;51.194;6.642;2022-07-23T07:31:23;35.85;;;16.92;;
28968;SDS011;16076;51.194;6.642;2022-07-23T07:33:49;32.33;;;16.25;;
28968;SDS011;16076;51.194;6.642;2022-07-23T07:36:15;30.02;;;17.02;;
28968;SDS011;16076;51.194;6.642;2022-07-23T07:38:44;29.58;;;17.10;;
28968;SDS011;16076;51.194;6.642;2022-07-23T07:41:11;29.50;;;15.52;;
28968;SDS011;16076;51.194;6.642;2022-07-23T07:43:37;26.95;;;15.73;;
28968;SDS011;16076;51.194;6.642;2022-07-23T07:46:03;27.50;;;15.20;;
28968;SDS011;16076;51.194;6.642;2022-07-23T07:48:29;29.20;;;16.52;;
28968;SDS011;16076;51.194;6.642;2022-07-23T07:50:55;23.85;;;14.82;;
28968;SDS011;16076;51.194;6.642;2022-07-23T07:53:25;21.35;;;12.95;;
28968;SDS011;16076;51.194;6.642;2022-07-23T07:55:51;19.90;;;13.00;;
28968;SDS011;16076;51.194;6.642;2022-07-23T07:58:17;21.02;;;12.82;;
28968;SDS011;16076;51.194;6.642;2022-07-23T08:00:43;20.88;;;12.50;;
28968;SDS011;16076;51.194;6.642;2022-07-23T08:03:09;28.98;;;12.85;;
28968;SDS011;16076;51.194;6.642;2022-07-23T08:05:34;17.92;;;12.32;;
28968;SDS011;16076;51.194;6.642;2022-07-23T08:08:00;16.88;;;11.57;;
28968;SDS011;16076;51.194;6.642;2022-07-23T08:10:29;20.50;;;12.82;;
28968;SDS011;16076;51.194;6.642;2022-07-23T08:12:57;18.20;;;11.55;;
28968;SDS011;16076;51.194;6.642;2022-07-23T08:15:24;15.95;;;11.45;;
28968;SDS011;16076;51.194;6.642;2022-07-23T08:17:51;20.20;;;12.48;;
28968;SDS011;16076;51.194;6.642;2022-07-23T08:20:18;20.80;;;12.48;;
28968;SDS011;16076;51.194;6.642;2022-07-23T08:22:56;22.88;;;11.50;;
28968;SDS011;16076;51.194;6.642;2022-07-23T08:25:25;20.13;;;11.52;;
28968;SDS011;16076;51.194;6.642;2022-07-23T08:28:00;16.38;;;10.48;;
28968;SDS011;16076;51.194;6.642;2022-07-23T08:30:30;16.30;;;9.07;;
28968;SDS011;16076;51.194;6.642;2022-07-23T08:33:03;13.00;;;8.10;;
28968;SDS011;16076;51.194;6.642;2022-07-23T08:37:55;13.10;;;7.47;;
28968;SDS011;16076;51.194;6.642;2022-07-23T08:40:23;14.68;;;7.97;;
28968;SDS011;16076;51.194;6.642;2022-07-23T08:42:53;14.00;;;8.40;;
28968;SDS011;16076;51.194;6.642;2022-07-23T08:45:20;12.25;;;7.97;;
28968;SDS011;16076;51.194;6.642;2022-07-23T08:47:51;11.20;;;6.45;;
28968;SDS011;16076;51.194;6.642;2022-07-23T08:50:21;12.07;;;6.13;;
28968;SDS011;16076;51.194;6.642;2022-07-23T08:52:49;11.18;;;6.78;;
28968;SDS011;16076;51.194;6.642;2022-07-23T08:55:19;13.48;;;5.80;;
28968;SDS011;16076;51.194;6.642;2022-07-23T08:57:48;9.15;;;6.15;;
28968;SDS011;16076;51.194;6.642;2022-07-23T09:00:15;7.22;;;5.45;;
28968;SDS011;16076;51.194;6.642;2022-07-23T09:02:42;7.72;;;5.95;;
28968;SDS011;16076;51.194;6.642;2022-07-23T09:05:12;11.70;;;5.53;;
28968;SDS011;16076;51.194;6.642;2022-07-23T09:08:02;9.65;;;6.40;;
28968;SDS011;16076;51.194;6.642;2022-07-23T09:10:33;7.47;;;5.05;;
28968;SDS011;16076;51.194;6.642;2022-07-23T09:13:23;7.43;;;5.60;;
28968;SDS011;16076;51.194;6.642;2022-07-23T09:15:52;7.65;;;5.57;;
28968;SDS011;16076;51.194;6.642;2022-07-23T09:18:19;7.75;;;4.63;;
28968;SDS011;16076;51.194;6.642;2022-07-23T09:21:04;7.35;;;4.43;;
28968;SDS011;16076;51.194;6.642;2022-07-23T09:24:09;9.57;;;5.32;;
28968;SDS011;16076;51.194;6.642;2022-07-23T09:26:29;6.32;;;4.15;;
28968;SDS011;16076;51.194;6.642;2022-07-23T09:28:59;10.02;;;5.30;;
28968;SDS011;16076;51.194;6.642;2022-07-23T09:31:31;7.85;;;4.82;;
28968;SDS011;16076;51.194;6.642;2022-07-23T09:34:07;6.05;;;4.18;;
28968;SDS011;16076;51.194;6.642;2022-07-23T09:36:39;6.72;;;3.63;;
28968;SDS011;16076;51.194;6.642;2022-07-23T09:39:06;5.03;;;3.60;;
28968;SDS011;16076;51.194;6.642;2022-07-23T09:41:51;5.15;;;3.08;;
28968;SDS011;16076;51.194;6.642;2022-07-23T09:44:19;7.53;;;3.53;;
28968;SDS011;16076;51.194;6.642;2022-07-23T09:46:47;10.57;;;4.65;;
28968;SDS011;16076;51.194;6.642;2022-07-23T09:49:19;6.72;;;4.00;;
28968;SDS011;16076;51.194;6.642;2022-07-23T09:57:03;11.30;;;4.55;;
28968;SDS011;16076;51.194;6.642;2022-07-23T09:59:35;7.85;;;3.80;;
28968;SDS011;16076;51.194;6.642;2022-07-23T10:02:04;5.43;;;3.40;;
28968;SDS011;16076;51.194;6.642;2022-07-23T10:04:31;7.63;;;4.10;;
28968;SDS011;16076;51.194;6.642;2022-07-23T10:06:58;6.65;;;3.58;;
28968;SDS011;16076;51.194;6.642;2022-07-23T10:09:27;6.32;;;3.00;;
28968;SDS011;16076;51.194;6.642;2022-07-23T10:12:01;4.70;;;3.20;;
28968;SDS011;16076;51.194;6.642;2022-07-23T10:14:34;6.07;;;2.88;;
28968;SDS011;16076;51.194;6.642;2022-07-23T10:17:02;12.23;;;4.50;;
28968;SDS011;16076;51.194;6.642;2022-07-23T10:19:29;5.38;;;3.30;;
28968;SDS011;16076;51.194;6.642;2022-07-23T10:22:03;7.05;;;3.08;;
28968;SDS011;16076;51.194;6.642;2022-07-23T10:27:27;5.57;;;2.80;;
28968;SDS011;16076;51.194;6.642;2022-07-23T10:30:39;5.88;;;2.83;;
28968;SDS011;16076;51.194;6.642;2022-07-23T10:39:28;5.43;;;2.63;;
28968;SDS011;16076;51.194;6.642;2022-07-23T10:42:16;5.90;;;3.03;;
28968;SDS011;16076;51.194;6.642;2022-07-23T10:44:46;5.95;;;3.40;;
28968;SDS011;16076;51.194;6.642;2022-07-23T10:47:26;4.68;;;3.10;;
28968;SDS011;16076;51.194;6.642;2022-07-23T10:49:53;7.35;;;2.95;;
28968;SDS011;16076;51.194;6.642;2022-07-23T10:52:39;5.20;;;2.90;;
28968;SDS011;16076;51.194;6.642;2022-07-23T10:57:46;5.97;;;2.63;;
28968;SDS011;16076;51.194;6.642;2022-07-23T11:00:14;4.22;;;2.28;;
28968;SDS011;16076;51.194;6.642;2022-07-23T11:02:43;4.57;;;2.70;;
28968;SDS011;16076;51.194;6.642;2022-07-23T11:05:12;5.78;;;2.42;;
28968;SDS011;16076;51.194;6.642;2022-07-23T11:23:58;2.85;;;1.90;;
28968;SDS011;16076;51.194;6.642;2022-07-23T11:32:17;4.55;;;1.77;;
28968;SDS011;16076;51.194;6.642;2022-07-23T11:34:53;1.95;;;1.75;;
28968;SDS011;16076;51.194;6.642;2022-07-23T11:37:39;2.28;;;1.98;;
28968;SDS011;16076;51.194;6.642;2022-07-23T11:40:09;5.90;;;2.17;;
28968;SDS011;16076;51.194;6.642;2022-07-23T11:45:29;3.42;;;2.13;;
28968;SDS011;16076;51.194;6.642;2022-07-23T11:48:02;5.30;;;2.35;;
28968;SDS011;16076;51.194;6.642;2022-07-23T11:50:29;3.35;;;2.00;;
28968;SDS011;16076;51.194;6.642;2022-07-23T11:52:55;2.55;;;2.00;;
28968;SDS011;16076;51.194;6.642;2022-07-23T11:55:25;3.22;;;1.92;;
28968;SDS011;16076;51.194;6.642;2022-07-23T11:57:53;1.60;;;1.48;;
28968;SDS011;16076;51.194;6.642;2022-07-23T12:00:24;5.25;;;2.20;;
28968;SDS011;16076;51.194;6.642;2022-07-23T12:02:52;1.70;;;1.40;;
28968;SDS011;16076;51.194;6.642;2022-07-23T12:07:50;2.30;;;1.50;;
28968;SDS011;16076;51.194;6.642;2022-07-23T12:10:21;3.40;;;1.20;;
28968;SDS011;16076;51.194;6.642;2022-07-23T12:12:54;1.30;;;1.08;;
28968;SDS011;16076;51.194;6.642;2022-07-23T12:15:25;3.78;;;1.70;;
28968;SDS011;16076;51.194;6.642;2022-07-23T12:17:51;1.85;;;1.20;;
28968;SDS011;16076;51.194;6.642;2022-07-23T12:20:20;3.20;;;1.60;;
28968;SDS011;16076;51.194;6.642;2022-07-23T12:22:51;4.03;;;1.75;;
28968;SDS011;16076;51.194;6.642;2022-07-23T12:25:21;2.58;;;1.27;;
28968;SDS011;16076;51.194;6.642;2022-07-23T12:28:07;3.08;;;1.67;;
28968;SDS011;16076;51.194;6.642;2022-07-23T12:30:46;3.45;;;1.33;;
28968;SDS011;16076;51.194;6.642;2022-07-23T12:35:50;3.90;;;1.42;;
28968;SDS011;16076;51.194;6.642;2022-07-23T12:38:18;2.60;;;1.27;;
28968;SDS011;16076;51.194;6.642;2022-07-23T12:40:47;3.60;;;1.20;;
28968;SDS011;16076;51.194;6.642;2022-07-23T12:43:25;2.47;;;1.48;;
28968;SDS011;16076;51.194;6.642;2022-07-23T12:46:05;1.77;;;1.30;;
28968;SDS011;16076;51.194;6.642;2022-07-23T12:48:33;2.65;;;1.67;;
28968;SDS011;16076;51.194;6.642;2022-07-23T12:56:08;2.53;;;1.30;;
28968;SDS011;16076;51.194;6.642;2022-07-23T12:58:39;2.45;;;1.42;;
28968;SDS011;16076;51.194;6.642;2022-07-23T13:01:08;3.30;;;1.80;;
28968;SDS011;16076;51.194;6.642;2022-07-23T13:06:04;1.58;;;1.20;;
28968;SDS011;16076;51.194;6.642;2022-07-23T13:08:32;2.58;;;1.60;;
28968;SDS011;16076;51.194;6.642;2022-07-23T13:10:59;3.30;;;1.10;;
28968;SDS011;16076;51.194;6.642;2022-07-23T13:13:27;2.25;;;1.10;;
28968;SDS011;16076;51.194;6.642;2022-07-23T13:15:56;2.47;;;1.08;;
28968;SDS011;16076;51.194;6.642;2022-07-23T13:18:22;2.05;;;0.93;;
28968;SDS011;16076;51.194;6.642;2022-07-23T13:20:50;5.13;;;1.73;;
28968;SDS011;16076;51.194;6.642;2022-07-23T13:23:16;2.00;;;1.25;;
28968;SDS011;16076;51.194;6.642;2022-07-23T13:25:42;4.50;;;1.10;;
28968;SDS011;16076;51.194;6.642;2022-07-23T13:28:09;3.08;;;0.90;;
28968;SDS011;16076;51.194;6.642;2022-07-23T13:30:35;1.58;;;0.95;;
28968;SDS011;16076;51.194;6.642;2022-07-23T13:33:08;2.75;;;1.20;;
28968;SDS011;16076;51.194;6.642;2022-07-23T13:35:35;1.95;;;1.00;;
28968;SDS011;16076;51.194;6.642;2022-07-23T13:38:02;3.42;;;1.20;;
28968;SDS011;16076;51.194;6.642;2022-07-23T13:40:28;2.13;;;1.30;;
28968;SDS011;16076;51.194;6.642;2022-07-23T13:42:55;2.03;;;0.93;;
28968;SDS011;16076;51.194;6.642;2022-07-23T13:45:20;2.33;;;1.17;;
28968;SDS011;16076;51.194;6.642;2022-07-23T13:47:46;3.10;;;1.10;;
28968;SDS011;16076;51.194;6.642;2022-07-23T13:50:12;3.33;;;1.50;;
28968;SDS011;16076;51.194;6.642;2022-07-23T13:52:41;2.78;;;1.20;;
28968;SDS011;16076;51.194;6.642;2022-07-23T13:55:11;1.95;;;1.05;;
28968;SDS011;16076;51.194;6.642;2022-07-23T13:57:36;2.50;;;1.10;;
28968;SDS011;16076;51.194;6.642;2022-07-23T14:00:03;3.35;;;1.25;;
28968;SDS011;16076;51.194;6.642;2022-07-23T14:02:32;1.98;;;1.25;;
28968;SDS011;16076;51.194;6.642;2022-07-23T14:04:58;1.67;;;0.90;;
28968;SDS011;16076;51.194;6.642;2022-07-23T14:07:24;4.70;;;1.23;;
28968;SDS011;16076;51.194;6.642;2022-07-23T14:09:52;4.35;;;1.52;;
28968;SDS011;16076;51.194;6.642;2022-07-23T14:12:18;3.53;;;0.93;;
28968;SDS011;16076;51.194;6.642;2022-07-23T14:14:47;1.73;;;1.05;;
28968;SDS011;16076;51.194;6.642;2022-07-23T14:17:12;1.92;;;1.10;;
28968;SDS011;16076;51.194;6.642;2022-07-23T14:19:38;1.48;;;0.95;;
28968;SDS011;16076;51.194;6.642;2022-07-23T14:22:04;2.05;;;1.20;;
28968;SDS011;16076;51.194;6.642;2022-07-23T14:24:33;1.95;;;1.00;;
28968;SDS011;16076;51.194;6.642;2022-07-23T14:27:02;1.92;;;1.02;;
28968;SDS011;16076;51.194;6.642;2022-07-23T14:29:28;4.25;;;1.50;;
28968;SDS011;16076;51.194;6.642;2022-07-23T14:31:58;3.38;;;1.42;;
28968;SDS011;16076;51.194;6.642;2022-07-23T14:34:24;1.77;;;0.90;;
28968;SDS011;16076;51.194;6.642;2022-07-23T14:36:52;2.58;;;1.10;;
28968;SDS011;16076;51.194;6.642;2022-07-23T14:39:18;2.45;;;1.10;;
28968;SDS011;16076;51.194;6.642;2022-07-23T14:41:46;3.00;;;1.30;;
28968;SDS011;16076;51.194;6.642;2022-07-23T14:44:15;2.00;;;1.20;;
28968;SDS011;16076;51.194;6.642;2022-07-23T14:46:41;3.28;;;1.65;;
28968;SDS011;16076;51.194;6.642;2022-07-23T14:49:09;4.32;;;1.42;;
28968;SDS011;16076;51.194;6.642;2022-07-23T14:51:36;1.83;;;1.00;;
28968;SDS011;16076;51.194;6.642;2022-07-23T14:54:06;1.80;;;1.23;;
28968;SDS011;16076;51.194;6.642;2022-07-23T14:56:32;2.83;;;1.48;;
28968;SDS011;16076;51.194;6.642;2022-07-23T14:58:58;3.72;;;1.33;;
28968;SDS011;16076;51.194;6.642;2022-07-23T15:01:24;1.95;;;1.00;;
28968;SDS011;16076;51.194;6.642;2022-07-23T15:03:52;2.40;;;1.00;;
28968;SDS011;16076;51.194;6.642;2022-07-23T15:06:18;2.00;;;1.17;;
28968;SDS011;16076;51.194;6.642;2022-07-23T15:08:43;1.30;;;0.80;;
28968;SDS011;16076;51.194;6.642;2022-07-23T15:11:12;2.83;;;1.05;;
28968;SDS011;16076;51.194;6.642;2022-07-23T15:13:38;2.90;;;1.05;;
28968;SDS011;16076;51.194;6.642;2022-07-23T15:16:04;2.08;;;1.20;;
28968;SDS011;16076;51.194;6.642;2022-07-23T15:18:30;2.78;;;1.40;;
28968;SDS011;16076;51.194;6.642;2022-07-23T15:20:59;2.40;;;1.25;;
28968;SDS011;16076;51.194;6.642;2022-07-23T15:23:26;2.67;;;1.20;;
28968;SDS011;16076;51.194;6.642;2022-07-23T15:25:53;1.30;;;1.10;;
28968;SDS011;16076;51.194;6.642;2022-07-23T15:28:20;2.40;;;1.10;;
28968;SDS011;16076;51.194;6.642;2022-07-23T15:30:46;3.55;;;1.23;;
28968;SDS011;16076;51.194;6.642;2022-07-23T15:33:12;2.20;;;1.48;;
28968;SDS011;16076;51.194;6.642;2022-07-23T15:35:40;3.55;;;1.58;;